sensor_id;sensor_type;location;lat;lon;timestamp;temperature;humidity
45137;DHT22;30894;51.740;19.498;2022-12-18T00:01:33;0.30;99.90
45137;DHT22;30894;51.740;19.498;2022-12-18T00:04:05;0.30;99.90
45137;DHT22;30894;51.740;19.498;2022-12-18T00:06:32;0.30;99.90
45137;DHT22;30894;51.740;19.498;2022-12-18T00:09:02;0.30;99.90
45137;DHT22;30894;51.740;19.498;2022-12-18T00:11:32;0.30;99.90
45137;DHT22;30894;51.740;19.498;2022-12-18T00:14:05;0.30;99.90
45137;DHT22;30894;51.740;19.498;2022-12-18T00:16:31;0.20;99.90
45137;DHT22;30894;51.740;19.498;2022-12-18T00:18:59;0.30;99.90
45137;DHT22;30894;51.740;19.498;2022-12-18T00:21:27;0.20;99.90
45137;DHT22;30894;51.740;19.498;2022-12-18T00:23:54;0.30;99.90
45137;DHT22;30894;51.740;19.498;2022-12-18T00:26:29;0.20;99.90
45137;DHT22;30894;51.740;19.498;2022-12-18T00:29:01;0.20;99.90
45137;DHT22;30894;51.740;19.498;2022-12-18T00:31:32;0.30;99.90
45137;DHT22;30894;51.740;19.498;2022-12-18T00:33:58;0.20;99.90
45137;DHT22;30894;51.740;19.498;2022-12-18T00:36:29;0.20;99.90
45137;DHT22;30894;51.740;19.498;2022-12-18T00:39:03;0.10;99.90
45137;DHT22;30894;51.740;19.498;2022-12-18T00:41:30;0.20;99.90
45137;DHT22;30894;51.740;19.498;2022-12-18T00:44:17;0.20;99.90
45137;DHT22;30894;51.740;19.498;2022-12-18T00:46:45;0.10;99.90
45137;DHT22;30894;51.740;19.498;2022-12-18T00:49:12;0.10;99.90
45137;DHT22;30894;51.740;19.498;2022-12-18T00:51:42;0.10;99.90
45137;DHT22;30894;51.740;19.498;2022-12-18T00:54:08;0.10;99.90
45137;DHT22;30894;51.740;19.498;2022-12-18T00:56:37;0.10;99.90
45137;DHT22;30894;51.740;19.498;2022-12-18T00:59:03;0.10;99.90
45137;DHT22;30894;51.740;19.498;2022-12-18T01:01:32;0.10;99.90
45137;DHT22;30894;51.740;19.498;2022-12-18T01:04:01;0.10;99.90
45137;DHT22;30894;51.740;19.498;2022-12-18T01:06:29;0.10;99.90
45137;DHT22;30894;51.740;19.498;2022-12-18T01:08:56;0.20;99.90
45137;DHT22;30894;51.740;19.498;2022-12-18T01:11:22;0.20;99.90
45137;DHT22;30894;51.740;19.498;2022-12-18T01:13:49;0.20;99.90
45137;DHT22;30894;51.740;19.498;2022-12-18T01:16:16;0.10;99.90
45137;DHT22;30894;51.740;19.498;2022-12-18T01:18:43;0.20;99.90
45137;DHT22;30894;51.740;19.498;2022-12-18T01:21:12;0.20;99.90
45137;DHT22;30894;51.740;19.498;2022-12-18T01:23:40;0.20;99.90
45137;DHT22;30894;51.740;19.498;2022-12-18T01:26:14;0.20;99.90
45137;DHT22;30894;51.740;19.498;2022-12-18T01:28:42;0.20;99.90
45137;DHT22;30894;51.740;19.498;2022-12-18T01:31:15;0.20;99.90
45137;DHT22;30894;51.740;19.498;2022-12-18T01:33:44;0.20;99.90
45137;DHT22;30894;51.740;19.498;2022-12-18T01:36:24;0.20;99.90
45137;DHT22;30894;51.740;19.498;2022-12-18T01:38:53;0.20;99.90
45137;DHT22;30894;51.740;19.498;2022-12-18T01:41:26;0.10;99.90
45137;DHT22;30894;51.740;19.498;2022-12-18T01:47:43;0.10;99.90
45137;DHT22;30894;51.740;19.498;2022-12-18T01:50:20;0.10;99.90
45137;DHT22;30894;51.740;19.498;2022-12-18T01:52:56;0.00;99.90
45137;DHT22;30894;51.740;19.498;2022-12-18T01:55:32;0.10;99.90
45137;DHT22;30894;51.740;19.498;2022-12-18T01:58:02;0.00;99.90
45137;DHT22;30894;51.740;19.498;2022-12-18T02:00:28;0.10;99.90
45137;DHT22;30894;51.740;19.498;2022-12-18T02:02:55;0.10;99.90
45137;DHT22;30894;51.740;19.498;2022-12-18T02:14:17;0.10;99.90
45137;DHT22;30894;51.740;19.498;2022-12-18T02:17:04;0.10;99.90
45137;DHT22;30894;51.740;19.498;2022-12-18T02:25:18;0.10;99.90
45137;DHT22;30894;51.740;19.498;2022-12-18T02:27:50;0.10;99.90
45137;DHT22;30894;51.740;19.498;2022-12-18T02:30:20;0.10;99.90
45137;DHT22;30894;51.740;19.498;2022-12-18T02:32:50;0.10;99.90
45137;DHT22;30894;51.740;19.498;2022-12-18T02:35:23;0.10;99.90
45137;DHT22;30894;51.740;19.498;2022-12-18T02:37:54;0.10;99.90
45137;DHT22;30894;51.740;19.498;2022-12-18T02:40:25;0.10;99.90
45137;DHT22;30894;51.740;19.498;2022-12-18T02:42:55;0.10;99.90
45137;DHT22;30894;51.740;19.498;2022-12-18T02:45:28;0.10;99.90
45137;DHT22;30894;51.740;19.498;2022-12-18T02:47:54;0.10;99.90
45137;DHT22;30894;51.740;19.498;2022-12-18T02:50:48;0.00;99.90
45137;DHT22;30894;51.740;19.498;2022-12-18T02:53:41;0.10;99.90
45137;DHT22;30894;51.740;19.498;2022-12-18T02:56:17;0.10;99.90
45137;DHT22;30894;51.740;19.498;2022-12-18T03:06:57;0.10;99.90
45137;DHT22;30894;51.740;19.498;2022-12-18T03:09:29;0.10;99.90
45137;DHT22;30894;51.740;19.498;2022-12-18T03:12:34;0.10;99.90
45137;DHT22;30894;51.740;19.498;2022-12-18T03:15:12;0.10;99.90
45137;DHT22;30894;51.740;19.498;2022-12-18T03:17:48;0.10;99.90
45137;DHT22;30894;51.740;19.498;2022-12-18T03:20:20;0.10;99.90
45137;DHT22;30894;51.740;19.498;2022-12-18T03:22:55;0.10;99.90
45137;DHT22;30894;51.740;19.498;2022-12-18T03:25:27;0.10;99.90
45137;DHT22;30894;51.740;19.498;2022-12-18T03:27:56;0.10;99.90
45137;DHT22;30894;51.740;19.498;2022-12-18T03:30:25;0.10;99.90
45137;DHT22;30894;51.740;19.498;2022-12-18T03:33:01;0.00;99.90
45137;DHT22;30894;51.740;19.498;2022-12-18T03:35:38;0.00;99.90
45137;DHT22;30894;51.740;19.498;2022-12-18T03:38:08;0.00;99.90
45137;DHT22;30894;51.740;19.498;2022-12-18T03:46:58;0.00;99.90
45137;DHT22;30894;51.740;19.498;2022-12-18T03:49:40;0.00;99.90
45137;DHT22;30894;51.740;19.498;2022-12-18T03:52:18;0.00;99.90
45137;DHT22;30894;51.740;19.498;2022-12-18T03:54:50;0.10;99.90
45137;DHT22;30894;51.740;19.498;2022-12-18T03:57:21;0.10;99.90
45137;DHT22;30894;51.740;19.498;2022-12-18T03:59:59;0.00;99.90
45137;DHT22;30894;51.740;19.498;2022-12-18T04:02:32;0.10;99.90
45137;DHT22;30894;51.740;19.498;2022-12-18T04:05:05;0.10;99.90
45137;DHT22;30894;51.740;19.498;2022-12-18T04:07:34;0.00;99.90
45137;DHT22;30894;51.740;19.498;2022-12-18T04:10:03;0.00;99.90
45137;DHT22;30894;51.740;19.498;2022-12-18T04:12:31;0.00;99.90
45137;DHT22;30894;51.740;19.498;2022-12-18T04:14:58;0.00;99.90
45137;DHT22;30894;51.740;19.498;2022-12-18T04:17:25;0.00;99.90
45137;DHT22;30894;51.740;19.498;2022-12-18T04:19:55;0.00;99.90
45137;DHT22;30894;51.740;19.498;2022-12-18T04:22:21;0.20;99.90
45137;DHT22;30894;51.740;19.498;2022-12-18T04:24:47;0.10;99.90
45137;DHT22;30894;51.740;19.498;2022-12-18T04:27:19;0.00;99.90
45137;DHT22;30894;51.740;19.498;2022-12-18T04:29:46;0.00;99.90
45137;DHT22;30894;51.740;19.498;2022-12-18T04:32:13;0.00;99.90
45137;DHT22;30894;51.740;19.498;2022-12-18T04:34:41;0.00;99.90
45137;DHT22;30894;51.740;19.498;2022-12-18T04:37:09;0.00;99.90
45137;DHT22;30894;51.740;19.498;2022-12-18T04:39:37;0.00;99.90
45137;DHT22;30894;51.740;19.498;2022-12-18T04:42:03;0.00;99.90
45137;DHT22;30894;51.740;19.498;2022-12-18T04:44:29;0.00;99.90
45137;DHT22;30894;51.740;19.498;2022-12-18T04:46:59;0.00;99.90
45137;DHT22;30894;51.740;19.498;2022-12-18T04:49:34;0.00;99.90
45137;DHT22;30894;51.740;19.498;2022-12-18T04:52:00;0.00;99.90
45137;DHT22;30894;51.740;19.498;2022-12-18T04:54:36;0.00;99.90
45137;DHT22;30894;51.740;19.498;2022-12-18T04:57:01;-0.10;99.90
45137;DHT22;30894;51.740;19.498;2022-12-18T04:59:28;-0.10;99.90
45137;DHT22;30894;51.740;19.498;2022-12-18T05:01:54;-0.10;99.90
45137;DHT22;30894;51.740;19.498;2022-12-18T05:04:22;0.00;99.90
45137;DHT22;30894;51.740;19.498;2022-12-18T05:06:51;-0.10;99.90
45137;DHT22;30894;51.740;19.498;2022-12-18T05:09:18;0.00;99.90
45137;DHT22;30894;51.740;19.498;2022-12-18T05:11:44;0.00;99.90
45137;DHT22;30894;51.740;19.498;2022-12-18T05:14:11;0.00;99.90
45137;DHT22;30894;51.740;19.498;2022-12-18T05:16:37;-0.10;99.90
45137;DHT22;30894;51.740;19.498;2022-12-18T05:19:04;-0.10;99.90
45137;DHT22;30894;51.740;19.498;2022-12-18T05:21:31;-0.10;99.90
45137;DHT22;30894;51.740;19.498;2022-12-18T05:24:00;-0.10;99.90
45137;DHT22;30894;51.740;19.498;2022-12-18T05:26:26;-0.10;99.90
45137;DHT22;30894;51.740;19.498;2022-12-18T05:28:56;-0.10;99.90
45137;DHT22;30894;51.740;19.498;2022-12-18T05:31:22;-0.10;99.90
45137;DHT22;30894;51.740;19.498;2022-12-18T05:33:48;-0.10;99.90
45137;DHT22;30894;51.740;19.498;2022-12-18T05:36:14;-0.10;99.90
45137;DHT22;30894;51.740;19.498;2022-12-18T05:38:46;-0.10;99.90
45137;DHT22;30894;51.740;19.498;2022-12-18T05:41:12;-0.10;99.90
45137;DHT22;30894;51.740;19.498;2022-12-18T05:43:40;-0.10;99.90
45137;DHT22;30894;51.740;19.498;2022-12-18T05:46:12;-0.10;99.90
45137;DHT22;30894;51.740;19.498;2022-12-18T05:48:42;-0.10;99.90
45137;DHT22;30894;51.740;19.498;2022-12-18T05:51:12;-0.10;99.90
45137;DHT22;30894;51.740;19.498;2022-12-18T05:53:41;-0.10;99.90
45137;DHT22;30894;51.740;19.498;2022-12-18T05:56:13;-0.10;99.90
45137;DHT22;30894;51.740;19.498;2022-12-18T05:58:42;-0.10;99.90
45137;DHT22;30894;51.740;19.498;2022-12-18T06:01:14;-0.10;99.90
45137;DHT22;30894;51.740;19.498;2022-12-18T06:03:44;-0.10;99.90
45137;DHT22;30894;51.740;19.498;2022-12-18T06:06:22;-0.10;99.90
45137;DHT22;30894;51.740;19.498;2022-12-18T06:08:51;-0.10;99.90
45137;DHT22;30894;51.740;19.498;2022-12-18T06:11:20;-0.10;99.90
45137;DHT22;30894;51.740;19.498;2022-12-18T06:13:52;-0.10;99.90
45137;DHT22;30894;51.740;19.498;2022-12-18T06:16:19;-0.10;99.90
45137;DHT22;30894;51.740;19.498;2022-12-18T06:18:46;-0.10;99.90
45137;DHT22;30894;51.740;19.498;2022-12-18T06:21:13;-0.20;99.90
45137;DHT22;30894;51.740;19.498;2022-12-18T06:23:40;-0.20;99.90
45137;DHT22;30894;51.740;19.498;2022-12-18T06:26:12;-0.20;99.90
45137;DHT22;30894;51.740;19.498;2022-12-18T06:28:39;-0.20;99.90
45137;DHT22;30894;51.740;19.498;2022-12-18T06:31:06;-0.20;99.90
45137;DHT22;30894;51.740;19.498;2022-12-18T06:33:34;-0.30;99.90
45137;DHT22;30894;51.740;19.498;2022-12-18T06:36:06;-0.30;99.90
45137;DHT22;30894;51.740;19.498;2022-12-18T06:38:36;-0.30;99.90
45137;DHT22;30894;51.740;19.498;2022-12-18T06:41:22;-0.30;99.90
45137;DHT22;30894;51.740;19.498;2022-12-18T06:43:48;-0.40;99.90
45137;DHT22;30894;51.740;19.498;2022-12-18T06:46:15;-0.40;99.90
45137;DHT22;30894;51.740;19.498;2022-12-18T06:48:41;-0.40;99.90
45137;DHT22;30894;51.740;19.498;2022-12-18T06:51:07;-0.40;99.90
45137;DHT22;30894;51.740;19.498;2022-12-18T06:53:34;-0.40;99.90
45137;DHT22;30894;51.740;19.498;2022-12-18T06:56:05;-0.40;99.90
45137;DHT22;30894;51.740;19.498;2022-12-18T06:58:32;-0.40;99.90
45137;DHT22;30894;51.740;19.498;2022-12-18T07:01:00;-0.50;99.90
45137;DHT22;30894;51.740;19.498;2022-12-18T07:03:28;-0.50;99.90
45137;DHT22;30894;51.740;19.498;2022-12-18T07:05:56;-0.50;99.90
45137;DHT22;30894;51.740;19.498;2022-12-18T07:08:24;-0.50;99.90
45137;DHT22;30894;51.740;19.498;2022-12-18T07:10:51;-0.50;99.90
45137;DHT22;30894;51.740;19.498;2022-12-18T07:13:17;-0.50;99.90
45137;DHT22;30894;51.740;19.498;2022-12-18T07:15:45;-0.50;99.90
45137;DHT22;30894;51.740;19.498;2022-12-18T07:18:11;-0.50;99.90
45137;DHT22;30894;51.740;19.498;2022-12-18T07:20:38;-0.50;99.90
45137;DHT22;30894;51.740;19.498;2022-12-18T07:23:05;-0.50;99.90
45137;DHT22;30894;51.740;19.498;2022-12-18T07:25:37;-0.50;99.90
45137;DHT22;30894;51.740;19.498;2022-12-18T07:28:05;-0.50;99.90
45137;DHT22;30894;51.740;19.498;2022-12-18T07:30:32;-0.50;99.90
45137;DHT22;30894;51.740;19.498;2022-12-18T07:32:59;-0.50;99.90
45137;DHT22;30894;51.740;19.498;2022-12-18T07:35:25;-0.50;99.90
45137;DHT22;30894;51.740;19.498;2022-12-18T07:37:51;-0.50;99.90
45137;DHT22;30894;51.740;19.498;2022-12-18T07:40:18;-0.50;99.90
45137;DHT22;30894;51.740;19.498;2022-12-18T07:42:45;-0.50;99.90
45137;DHT22;30894;51.740;19.498;2022-12-18T07:45:11;-0.50;99.90
45137;DHT22;30894;51.740;19.498;2022-12-18T07:47:37;-0.50;99.90
45137;DHT22;30894;51.740;19.498;2022-12-18T07:50:04;-0.50;99.90
45137;DHT22;30894;51.740;19.498;2022-12-18T07:52:31;-0.50;99.90
45137;DHT22;30894;51.740;19.498;2022-12-18T07:54:57;-0.50;99.90
45137;DHT22;30894;51.740;19.498;2022-12-18T07:57:23;-0.50;99.90
45137;DHT22;30894;51.740;19.498;2022-12-18T07:59:49;-0.50;99.90
45137;DHT22;30894;51.740;19.498;2022-12-18T08:02:15;-0.50;99.90
45137;DHT22;30894;51.740;19.498;2022-12-18T08:04:41;-0.60;99.90
45137;DHT22;30894;51.740;19.498;2022-12-18T08:07:07;-0.50;99.90
45137;DHT22;30894;51.740;19.498;2022-12-18T08:09:33;-0.60;99.90
45137;DHT22;30894;51.740;19.498;2022-12-18T08:12:00;-0.50;99.90
45137;DHT22;30894;51.740;19.498;2022-12-18T08:14:26;-0.50;99.90
45137;DHT22;30894;51.740;19.498;2022-12-18T08:16:52;-0.50;99.90
45137;DHT22;30894;51.740;19.498;2022-12-18T08:19:18;-0.50;99.90
45137;DHT22;30894;51.740;19.498;2022-12-18T08:21:44;-0.50;99.90
45137;DHT22;30894;51.740;19.498;2022-12-18T08:24:10;-0.50;99.90
45137;DHT22;30894;51.740;19.498;2022-12-18T08:26:38;-0.40;99.90
45137;DHT22;30894;51.740;19.498;2022-12-18T08:29:05;-0.40;99.90
45137;DHT22;30894;51.740;19.498;2022-12-18T08:31:32;-0.40;99.90
45137;DHT22;30894;51.740;19.498;2022-12-18T08:33:58;-0.40;99.90
45137;DHT22;30894;51.740;19.498;2022-12-18T08:36:25;-0.40;99.90
45137;DHT22;30894;51.740;19.498;2022-12-18T08:38:52;-0.40;99.90
45137;DHT22;30894;51.740;19.498;2022-12-18T08:41:20;-0.40;99.90
45137;DHT22;30894;51.740;19.498;2022-12-18T08:43:46;-0.40;99.90
45137;DHT22;30894;51.740;19.498;2022-12-18T08:46:35;-0.40;99.90
45137;DHT22;30894;51.740;19.498;2022-12-18T08:49:03;-0.30;99.90
45137;DHT22;30894;51.740;19.498;2022-12-18T08:51:29;-0.30;99.90
45137;DHT22;30894;51.740;19.498;2022-12-18T08:53:55;-0.30;99.90
45137;DHT22;30894;51.740;19.498;2022-12-18T08:56:21;-0.30;99.90
45137;DHT22;30894;51.740;19.498;2022-12-18T08:58:47;-0.20;99.90
45137;DHT22;30894;51.740;19.498;2022-12-18T09:01:17;-0.20;99.90
45137;DHT22;30894;51.740;19.498;2022-12-18T09:03:43;-0.20;99.90
45137;DHT22;30894;51.740;19.498;2022-12-18T09:06:09;-0.20;99.90
45137;DHT22;30894;51.740;19.498;2022-12-18T09:08:39;-0.10;99.90
45137;DHT22;30894;51.740;19.498;2022-12-18T09:11:15;-0.10;99.90
45137;DHT22;30894;51.740;19.498;2022-12-18T09:13:45;-0.10;99.90
45137;DHT22;30894;51.740;19.498;2022-12-18T09:16:12;-0.10;99.90
45137;DHT22;30894;51.740;19.498;2022-12-18T09:18:38;0.00;99.90
45137;DHT22;30894;51.740;19.498;2022-12-18T09:21:19;0.00;99.90
45137;DHT22;30894;51.740;19.498;2022-12-18T09:23:51;0.00;99.90
45137;DHT22;30894;51.740;19.498;2022-12-18T09:26:22;0.00;99.90
45137;DHT22;30894;51.740;19.498;2022-12-18T09:28:49;0.10;99.90
45137;DHT22;30894;51.740;19.498;2022-12-18T09:31:18;0.10;99.90
45137;DHT22;30894;51.740;19.498;2022-12-18T09:33:45;0.10;99.90
45137;DHT22;30894;51.740;19.498;2022-12-18T09:36:13;0.10;99.90
45137;DHT22;30894;51.740;19.498;2022-12-18T09:38:41;0.10;99.90
45137;DHT22;30894;51.740;19.498;2022-12-18T09:44:45;0.20;99.90
45137;DHT22;30894;51.740;19.498;2022-12-18T09:47:41;0.20;99.90
45137;DHT22;30894;51.740;19.498;2022-12-18T09:50:32;0.10;99.90
45137;DHT22;30894;51.740;19.498;2022-12-18T09:53:17;0.10;99.90
45137;DHT22;30894;51.740;19.498;2022-12-18T09:55:51;0.10;99.90
45137;DHT22;30894;51.740;19.498;2022-12-18T09:58:44;0.10;99.90
45137;DHT22;30894;51.740;19.498;2022-12-18T10:01:21;0.10;99.90
45137;DHT22;30894;51.740;19.498;2022-12-18T10:03:49;0.10;99.90
45137;DHT22;30894;51.740;19.498;2022-12-18T10:06:28;0.10;99.90
45137;DHT22;30894;51.740;19.498;2022-12-18T10:09:27;0.20;99.90
45137;DHT22;30894;51.740;19.498;2022-12-18T10:17:59;0.20;99.90
45137;DHT22;30894;51.740;19.498;2022-12-18T10:20:49;0.20;99.90
45137;DHT22;30894;51.740;19.498;2022-12-18T10:23:28;0.20;99.90
45137;DHT22;30894;51.740;19.498;2022-12-18T10:26:09;0.30;99.90
45137;DHT22;30894;51.740;19.498;2022-12-18T10:28:37;0.30;99.90
45137;DHT22;30894;51.740;19.498;2022-12-18T10:31:19;0.30;99.90
45137;DHT22;30894;51.740;19.498;2022-12-18T10:33:46;0.30;99.90
45137;DHT22;30894;51.740;19.498;2022-12-18T10:36:15;0.30;99.90
45137;DHT22;30894;51.740;19.498;2022-12-18T10:38:42;0.30;99.90
45137;DHT22;30894;51.740;19.498;2022-12-18T10:41:40;0.30;99.90
45137;DHT22;30894;51.740;19.498;2022-12-18T10:44:19;0.30;99.90
45137;DHT22;30894;51.740;19.498;2022-12-18T10:46:50;0.40;99.90
45137;DHT22;30894;51.740;19.498;2022-12-18T10:49:29;0.40;99.90
45137;DHT22;30894;51.740;19.498;2022-12-18T10:52:17;0.40;99.90
45137;DHT22;30894;51.740;19.498;2022-12-18T10:54:53;0.40;99.90
45137;DHT22;30894;51.740;19.498;2022-12-18T10:57:50;0.40;99.90
45137;DHT22;30894;51.740;19.498;2022-12-18T11:00:26;0.40;99.90
45137;DHT22;30894;51.740;19.498;2022-12-18T11:02:54;0.40;99.90
45137;DHT22;30894;51.740;19.498;2022-12-18T11:05:29;0.40;99.90
45137;DHT22;30894;51.740;19.498;2022-12-18T11:07:58;0.40;99.90
45137;DHT22;30894;51.740;19.498;2022-12-18T11:10:30;0.40;99.90
45137;DHT22;30894;51.740;19.498;2022-12-18T11:13:16;0.40;99.90
45137;DHT22;30894;51.740;19.498;2022-12-18T11:15:48;0.50;99.90
45137;DHT22;30894;51.740;19.498;2022-12-18T11:18:32;0.50;99.90
45137;DHT22;30894;51.740;19.498;2022-12-18T11:21:11;0.50;99.90
45137;DHT22;30894;51.740;19.498;2022-12-18T11:23:50;0.50;99.90
45137;DHT22;30894;51.740;19.498;2022-12-18T11:26:34;0.50;99.90
45137;DHT22;30894;51.740;19.498;2022-12-18T11:29:10;0.50;99.90
45137;DHT22;30894;51.740;19.498;2022-12-18T11:31:42;0.50;99.90
45137;DHT22;30894;51.740;19.498;2022-12-18T11:36:55;0.60;99.90
45137;DHT22;30894;51.740;19.498;2022-12-18T11:39:36;0.60;99.90
45137;DHT22;30894;51.740;19.498;2022-12-18T11:42:35;0.60;99.90
45137;DHT22;30894;51.740;19.498;2022-12-18T11:45:52;0.50;99.90
45137;DHT22;30894;51.740;19.498;2022-12-18T11:48:25;0.60;99.90
45137;DHT22;30894;51.740;19.498;2022-12-18T11:50:57;0.60;99.90
45137;DHT22;30894;51.740;19.498;2022-12-18T11:53:26;0.60;99.90
45137;DHT22;30894;51.740;19.498;2022-12-18T11:56:04;0.60;99.90
45137;DHT22;30894;51.740;19.498;2022-12-18T11:59:06;0.60;99.90
45137;DHT22;30894;51.740;19.498;2022-12-18T12:02:00;0.60;99.90
45137;DHT22;30894;51.740;19.498;2022-12-18T12:05:18;0.60;99.90
45137;DHT22;30894;51.740;19.498;2022-12-18T12:10:54;0.60;99.90
45137;DHT22;30894;51.740;19.498;2022-12-18T12:16:56;0.60;99.90
45137;DHT22;30894;51.740;19.498;2022-12-18T12:25:42;0.50;99.90
45137;DHT22;30894;51.740;19.498;2022-12-18T12:28:51;0.50;99.90
45137;DHT22;30894;51.740;19.498;2022-12-18T12:31:55;0.50;99.90
45137;DHT22;30894;51.740;19.498;2022-12-18T12:37:56;0.50;99.90
45137;DHT22;30894;51.740;19.498;2022-12-18T12:40:32;0.50;99.90
45137;DHT22;30894;51.740;19.498;2022-12-18T12:43:27;0.50;99.90
45137;DHT22;30894;51.740;19.498;2022-12-18T12:46:08;0.40;99.90
45137;DHT22;30894;51.740;19.498;2022-12-18T12:48:46;0.40;99.90
45137;DHT22;30894;51.740;19.498;2022-12-18T12:54:33;0.40;99.90
45137;DHT22;30894;51.740;19.498;2022-12-18T12:59:52;0.40;99.90
45137;DHT22;30894;51.740;19.498;2022-12-18T13:05:39;0.30;99.90
45137;DHT22;30894;51.740;19.498;2022-12-18T13:08:23;0.30;99.90
45137;DHT22;30894;51.740;19.498;2022-12-18T13:10:54;0.20;99.90
45137;DHT22;30894;51.740;19.498;2022-12-18T13:13:52;0.20;99.90
45137;DHT22;30894;51.740;19.498;2022-12-18T13:16:24;0.20;99.90
45137;DHT22;30894;51.740;19.498;2022-12-18T13:18:51;0.20;99.90
45137;DHT22;30894;51.740;19.498;2022-12-18T13:21:28;0.10;99.90
45137;DHT22;30894;51.740;19.498;2022-12-18T13:23:56;0.10;99.90
45137;DHT22;30894;51.740;19.498;2022-12-18T13:28:54;0.10;99.90
45137;DHT22;30894;51.740;19.498;2022-12-18T13:34:19;0.10;99.90
45137;DHT22;30894;51.740;19.498;2022-12-18T13:36:50;0.10;99.90
45137;DHT22;30894;51.740;19.498;2022-12-18T13:41:46;0.00;99.90
45137;DHT22;30894;51.740;19.498;2022-12-18T13:47:31;-0.10;99.90
45137;DHT22;30894;51.740;19.498;2022-12-18T13:49:59;-0.10;99.90
45137;DHT22;30894;51.740;19.498;2022-12-18T13:52:28;-0.10;99.90
45137;DHT22;30894;51.740;19.498;2022-12-18T13:55:02;-0.10;99.90
45137;DHT22;30894;51.740;19.498;2022-12-18T13:57:34;-0.10;99.90
45137;DHT22;30894;51.740;19.498;2022-12-18T14:00:27;-0.10;99.90
45137;DHT22;30894;51.740;19.498;2022-12-18T14:02:55;-0.10;99.90
45137;DHT22;30894;51.740;19.498;2022-12-18T14:05:28;-0.20;99.90
45137;DHT22;30894;51.740;19.498;2022-12-18T14:08:06;-0.30;99.90
45137;DHT22;30894;51.740;19.498;2022-12-18T14:10:35;-0.30;99.90
45137;DHT22;30894;51.740;19.498;2022-12-18T14:13:13;-0.30;99.90
45137;DHT22;30894;51.740;19.498;2022-12-18T14:15:47;-0.40;99.90
45137;DHT22;30894;51.740;19.498;2022-12-18T14:21:02;-0.40;99.90
45137;DHT22;30894;51.740;19.498;2022-12-18T14:23:41;-0.50;99.90
45137;DHT22;30894;51.740;19.498;2022-12-18T14:26:28;-0.50;99.90
45137;DHT22;30894;51.740;19.498;2022-12-18T14:28:56;-0.60;99.90
45137;DHT22;30894;51.740;19.498;2022-12-18T14:31:26;-0.60;99.90
45137;DHT22;30894;51.740;19.498;2022-12-18T14:33:54;-0.60;99.90
45137;DHT22;30894;51.740;19.498;2022-12-18T14:36:23;-0.70;99.90
45137;DHT22;30894;51.740;19.498;2022-12-18T14:38:53;-0.60;99.90
45137;DHT22;30894;51.740;19.498;2022-12-18T14:41:24;-0.60;99.90
45137;DHT22;30894;51.740;19.498;2022-12-18T14:43:54;-0.70;99.90
45137;DHT22;30894;51.740;19.498;2022-12-18T14:46:35;-0.70;99.90
45137;DHT22;30894;51.740;19.498;2022-12-18T14:49:31;-0.70;99.90
45137;DHT22;30894;51.740;19.498;2022-12-18T14:52:01;-0.70;99.90
45137;DHT22;30894;51.740;19.498;2022-12-18T14:54:32;-0.70;99.90
45137;DHT22;30894;51.740;19.498;2022-12-18T14:57:22;-0.70;99.90
45137;DHT22;30894;51.740;19.498;2022-12-18T15:00:04;-0.80;99.90
45137;DHT22;30894;51.740;19.498;2022-12-18T15:02:35;-0.80;99.90
45137;DHT22;30894;51.740;19.498;2022-12-18T15:05:18;-0.80;99.90
45137;DHT22;30894;51.740;19.498;2022-12-18T15:07:49;-0.80;99.90
45137;DHT22;30894;51.740;19.498;2022-12-18T15:10:20;-0.80;99.90
45137;DHT22;30894;51.740;19.498;2022-12-18T15:13:08;-0.80;99.90
45137;DHT22;30894;51.740;19.498;2022-12-18T15:20:41;-0.90;99.90
45137;DHT22;30894;51.740;19.498;2022-12-18T15:23:30;-0.90;99.90
45137;DHT22;30894;51.740;19.498;2022-12-18T15:26:16;-0.90;99.90
45137;DHT22;30894;51.740;19.498;2022-12-18T15:28:56;-0.90;99.90
45137;DHT22;30894;51.740;19.498;2022-12-18T15:31:32;-0.80;99.90
45137;DHT22;30894;51.740;19.498;2022-12-18T15:36:34;-0.80;99.90
45137;DHT22;30894;51.740;19.498;2022-12-18T15:39:04;-0.80;99.90
45137;DHT22;30894;51.740;19.498;2022-12-18T15:41:35;-0.90;99.90
45137;DHT22;30894;51.740;19.498;2022-12-18T15:44:02;-0.90;99.90
45137;DHT22;30894;51.740;19.498;2022-12-18T15:46:30;-0.90;99.90
45137;DHT22;30894;51.740;19.498;2022-12-18T15:48:57;-0.90;99.90
45137;DHT22;30894;51.740;19.498;2022-12-18T15:51:27;-0.90;99.90
45137;DHT22;30894;51.740;19.498;2022-12-18T15:53:58;-0.90;99.90
45137;DHT22;30894;51.740;19.498;2022-12-18T15:56:26;-0.90;99.90
45137;DHT22;30894;51.740;19.498;2022-12-18T15:59:16;-0.90;99.90
45137;DHT22;30894;51.740;19.498;2022-12-18T16:01:46;-0.90;99.90
45137;DHT22;30894;51.740;19.498;2022-12-18T16:04:14;-0.90;99.90
45137;DHT22;30894;51.740;19.498;2022-12-18T16:06:42;-0.90;99.90
45137;DHT22;30894;51.740;19.498;2022-12-18T16:09:09;-0.90;99.90
45137;DHT22;30894;51.740;19.498;2022-12-18T16:11:37;-0.90;99.90
45137;DHT22;30894;51.740;19.498;2022-12-18T16:16:43;-0.90;99.90
45137;DHT22;30894;51.740;19.498;2022-12-18T16:19:20;-0.90;99.90
45137;DHT22;30894;51.740;19.498;2022-12-18T16:21:51;-1.00;99.90
45137;DHT22;30894;51.740;19.498;2022-12-18T16:24:21;-1.00;99.90
45137;DHT22;30894;51.740;19.498;2022-12-18T16:26:56;-1.00;99.90
45137;DHT22;30894;51.740;19.498;2022-12-18T16:29:25;-1.00;99.90
45137;DHT22;30894;51.740;19.498;2022-12-18T16:31:57;-1.00;99.90
45137;DHT22;30894;51.740;19.498;2022-12-18T16:34:34;-1.00;99.90
45137;DHT22;30894;51.740;19.498;2022-12-18T16:37:03;-1.00;99.90
45137;DHT22;30894;51.740;19.498;2022-12-18T16:39:30;-1.00;99.90
45137;DHT22;30894;51.740;19.498;2022-12-18T16:41:57;-1.00;99.90
45137;DHT22;30894;51.740;19.498;2022-12-18T16:44:23;-1.00;99.90
45137;DHT22;30894;51.740;19.498;2022-12-18T16:46:49;-1.10;99.90
45137;DHT22;30894;51.740;19.498;2022-12-18T16:49:17;-1.00;99.90
45137;DHT22;30894;51.740;19.498;2022-12-18T16:51:46;-1.10;99.90
45137;DHT22;30894;51.740;19.498;2022-12-18T16:54:15;-1.10;99.90
45137;DHT22;30894;51.740;19.498;2022-12-18T16:56:41;-1.10;99.90
45137;DHT22;30894;51.740;19.498;2022-12-18T16:59:10;-1.10;99.90
45137;DHT22;30894;51.740;19.498;2022-12-18T17:01:37;-1.10;99.90
45137;DHT22;30894;51.740;19.498;2022-12-18T17:04:05;-1.10;99.90
45137;DHT22;30894;51.740;19.498;2022-12-18T17:06:34;-1.10;99.90
45137;DHT22;30894;51.740;19.498;2022-12-18T17:09:05;-1.10;99.90
45137;DHT22;30894;51.740;19.498;2022-12-18T17:11:35;-1.10;99.90
45137;DHT22;30894;51.740;19.498;2022-12-18T17:14:13;-1.10;99.90
45137;DHT22;30894;51.740;19.498;2022-12-18T17:16:44;-1.20;99.90
45137;DHT22;30894;51.740;19.498;2022-12-18T17:19:11;-1.20;99.90
45137;DHT22;30894;51.740;19.498;2022-12-18T17:21:37;-1.20;99.90
45137;DHT22;30894;51.740;19.498;2022-12-18T17:24:04;-1.20;99.90
45137;DHT22;30894;51.740;19.498;2022-12-18T17:26:31;-1.20;99.90
45137;DHT22;30894;51.740;19.498;2022-12-18T17:29:00;-1.30;99.90